createdAt,value
2022-10-28T00:01:12.180Z,100.00
2022-10-28T00:03:40.717Z,100.00
2022-10-28T00:06:10.786Z,100.00
2022-10-28T00:08:37.868Z,100.00
2022-10-28T00:11:06.679Z,100.00
2022-10-28T00:13:33.804Z,100.00
2022-10-28T00:16:10.223Z,100.00
2022-10-28T00:18:37.779Z,100.00
2022-10-28T00:21:06.863Z,100.00
2022-10-28T00:23:33.545Z,100.00
2022-10-28T00:26:07.922Z,100.00
2022-10-28T00:28:34.622Z,100.00
2022-10-28T00:31:06.670Z,100.00
2022-10-28T00:33:35.193Z,100.00
2022-10-28T00:36:09.424Z,100.00
2022-10-28T00:38:36.217Z,100.00
2022-10-28T00:41:02.852Z,100.00
2022-10-28T00:43:37.553Z,100.00
2022-10-28T00:46:07.334Z,100.00
2022-10-28T00:48:35.465Z,100.00
2022-10-28T00:51:02.968Z,100.00
2022-10-28T00:53:32.361Z,100.00
2022-10-28T00:56:02.004Z,100.00
2022-10-28T00:58:29.567Z,100.00
2022-10-28T01:00:56.659Z,100.00
2022-10-28T01:03:23.422Z,100.00
2022-10-28T01:05:52.621Z,100.00
2022-10-28T01:08:20.251Z,100.00
2022-10-28T01:11:16.601Z,100.00
2022-10-28T01:13:54.175Z,100.00
2022-10-28T01:16:33.569Z,100.00
2022-10-28T01:19:22.799Z,100.00
2022-10-28T01:22:06.255Z,100.00
2022-10-28T01:24:50.420Z,100.00
2022-10-28T01:27:51.364Z,100.00
2022-10-28T01:30:20.245Z,100.00
2022-10-28T01:32:59.964Z,100.00
2022-10-28T01:35:32.906Z,100.00
2022-10-28T01:38:15.669Z,100.00
2022-10-28T01:40:48.132Z,100.00
2022-10-28T01:43:22.200Z,100.00
2022-10-28T01:45:52.375Z,100.00
2022-10-28T01:48:25.783Z,100.00
2022-10-28T01:50:57.578Z,100.00
2022-10-28T01:53:29.465Z,100.00
2022-10-28T01:56:00.246Z,100.00
2022-10-28T01:58:31.095Z,100.00
2022-10-28T02:01:01.506Z,100.00
2022-10-28T02:03:29.589Z,100.00
2022-10-28T02:05:58.490Z,100.00
2022-10-28T02:08:53.376Z,100.00
2022-10-28T02:11:32.830Z,100.00
2022-10-28T02:14:07.452Z,100.00
2022-10-28T02:16:42.910Z,100.00
2022-10-28T02:19:17.419Z,100.00
2022-10-28T02:21:55.761Z,100.00
2022-10-28T02:24:34.471Z,100.00
2022-10-28T02:27:12.784Z,100.00
2022-10-28T02:29:45.868Z,100.00
2022-10-28T02:32:17.673Z,100.00
2022-10-28T02:34:49.299Z,100.00
2022-10-28T02:37:23.042Z,100.00
2022-10-28T02:39:55.404Z,100.00
2022-10-28T02:42:26.221Z,100.00
2022-10-28T02:44:57.282Z,100.00
2022-10-28T02:47:28.819Z,100.00
2022-10-28T02:50:00.692Z,100.00
2022-10-28T02:52:30.227Z,100.00
2022-10-28T02:54:59.036Z,100.00
2022-10-28T02:57:28.149Z,100.00
2022-10-28T02:59:57.385Z,100.00
2022-10-28T03:02:24.545Z,100.00
2022-10-28T03:04:51.400Z,100.00
2022-10-28T03:07:19.966Z,100.00
2022-10-28T03:09:46.807Z,100.00
2022-10-28T03:12:13.629Z,100.00
2022-10-28T03:14:41.126Z,100.00
2022-10-28T03:17:07.840Z,100.00
2022-10-28T03:19:34.533Z,100.00
2022-10-28T03:22:01.194Z,100.00
2022-10-28T03:24:29.167Z,100.00
2022-10-28T03:26:55.948Z,100.00
2022-10-28T03:29:22.615Z,100.00
2022-10-28T03:31:49.245Z,100.00
2022-10-28T03:34:15.879Z,100.00
2022-10-28T03:36:42.592Z,100.00
2022-10-28T03:39:09.314Z,100.00
2022-10-28T03:41:37.346Z,100.00
2022-10-28T03:44:04.159Z,100.00
2022-10-28T03:46:33.585Z,100.00
2022-10-28T03:49:02.564Z,100.00
2022-10-28T03:51:29.241Z,100.00
2022-10-28T03:53:55.875Z,100.00
2022-10-28T03:56:22.614Z,100.00
2022-10-28T04:01:17.551Z,100.00
2022-10-28T04:03:44.247Z,100.00
2022-10-28T04:06:10.991Z,100.00
2022-10-28T04:08:37.805Z,100.00
2022-10-28T04:11:04.745Z,100.00
2022-10-28T04:13:31.412Z,100.00
2022-10-28T04:15:59.472Z,100.00
2022-10-28T04:18:26.184Z,100.00
2022-10-28T04:20:52.851Z,100.00
2022-10-28T04:23:19.519Z,100.00
2022-10-28T04:25:46.230Z,100.00
2022-10-28T04:28:12.908Z,100.00
2022-10-28T04:30:39.548Z,100.00
2022-10-28T04:33:09.161Z,100.00
2022-10-28T04:35:39.123Z,100.00
2022-10-28T04:38:05.821Z,100.00
2022-10-28T04:40:32.547Z,100.00
2022-10-28T04:42:59.188Z,100.00
2022-10-28T04:45:25.802Z,100.00
2022-10-28T04:47:57.030Z,100.00
2022-10-28T04:50:25.067Z,100.00
2022-10-28T04:52:51.985Z,100.00
2022-10-28T04:55:19.011Z,100.00
2022-10-28T04:57:53.952Z,100.00
2022-10-28T05:00:20.824Z,100.00
2022-10-28T05:02:47.578Z,96.08
2022-10-28T05:05:14.603Z,94.25
2022-10-28T05:07:42.610Z,93.38
2022-10-28T05:10:09.799Z,92.46
2022-10-28T05:12:36.392Z,91.28
2022-10-28T05:15:03.071Z,90.34
2022-10-28T05:17:29.698Z,89.42
2022-10-28T05:19:56.355Z,88.96
2022-10-28T05:22:23.013Z,89.51
2022-10-28T05:24:51.000Z,90.14
2022-10-28T05:27:17.649Z,93.33
2022-10-28T05:29:44.320Z,97.02
2022-10-28T05:32:11.003Z,99.66
2022-10-28T05:34:37.673Z,99.92
2022-10-28T05:37:04.258Z,98.09
2022-10-28T05:39:30.839Z,98.98
2022-10-28T05:41:58.805Z,96.23
2022-10-28T05:44:25.461Z,95.40
2022-10-28T05:46:52.110Z,96.05
2022-10-28T05:49:20.390Z,96.62
2022-10-28T05:51:47.107Z,97.93
2022-10-28T05:54:13.788Z,98.73
2022-10-28T05:56:40.481Z,99.27
2022-10-28T05:59:08.460Z,99.80
2022-10-28T06:01:35.187Z,99.84
2022-10-28T06:04:01.969Z,100.00
2022-10-28T06:06:28.880Z,100.00
2022-10-28T06:08:55.517Z,100.00
2022-10-28T06:11:20.626Z,100.00
2022-10-28T06:13:47.274Z,100.00
2022-10-28T06:16:15.228Z,100.00
2022-10-28T06:18:41.856Z,99.71
2022-10-28T06:21:08.708Z,99.43
2022-10-28T06:23:35.532Z,98.93
2022-10-28T06:26:03.505Z,98.43
2022-10-28T06:28:31.033Z,97.17
2022-10-28T06:31:00.683Z,96.17
2022-10-28T06:33:28.697Z,95.01
2022-10-28T06:35:58.569Z,95.42
2022-10-28T06:38:26.518Z,94.15
2022-10-28T06:40:53.485Z,94.05
2022-10-28T06:43:20.183Z,93.86
2022-10-28T06:45:52.260Z,91.32
2022-10-28T06:48:20.468Z,89.51
2022-10-28T06:50:48.622Z,88.78
2022-10-28T06:53:15.275Z,86.89
2022-10-28T06:55:41.959Z,84.98
2022-10-28T06:58:09.644Z,82.64
2022-10-28T07:00:36.529Z,79.89
2022-10-28T07:03:03.430Z,79.70
2022-10-28T07:05:30.188Z,78.38
2022-10-28T07:07:58.290Z,79.52
2022-10-28T07:10:25.096Z,79.16
2022-10-28T07:12:52.847Z,78.35
2022-10-28T07:15:19.777Z,77.10
2022-10-28T07:17:52.794Z,76.01
2022-10-28T07:20:19.527Z,75.65
2022-10-28T07:22:46.185Z,74.77
2022-10-28T07:25:15.114Z,74.16
2022-10-28T07:27:41.897Z,73.01
2022-10-28T07:30:10.083Z,72.07
2022-10-28T07:32:36.840Z,73.83
2022-10-28T07:35:03.827Z,75.17
2022-10-28T07:37:30.568Z,73.33
2022-10-28T07:39:57.298Z,73.58
2022-10-28T07:42:25.561Z,73.87
2022-10-28T07:44:52.384Z,72.54
2022-10-28T07:47:21.380Z,71.68
2022-10-28T07:49:48.676Z,72.49
2022-10-28T07:52:15.858Z,71.06
2022-10-28T07:54:42.572Z,73.43
2022-10-28T07:57:09.279Z,76.58
2022-10-28T07:59:37.349Z,82.64
2022-10-28T08:02:04.646Z,85.84
2022-10-28T08:04:31.813Z,84.29
2022-10-28T08:06:59.122Z,82.73
2022-10-28T08:09:25.938Z,87.50
2022-10-28T08:11:55.672Z,74.85
2022-10-28T08:14:22.577Z,69.26
2022-10-28T08:16:50.638Z,68.96
2022-10-28T08:19:17.312Z,67.24
2022-10-28T08:21:44.002Z,67.34
2022-10-28T08:24:10.726Z,66.51
2022-10-28T08:26:38.631Z,68.11
2022-10-28T08:29:05.382Z,66.37
2022-10-28T08:31:32.238Z,69.60
2022-10-28T08:34:00.303Z,65.24
2022-10-28T08:36:27.044Z,64.26
2022-10-28T08:38:53.705Z,63.49
2022-10-28T08:41:29.852Z,63.43
2022-10-28T08:44:24.501Z,62.76
2022-10-28T08:47:04.093Z,61.88
2022-10-28T08:49:34.649Z,63.20
2022-10-28T08:52:08.238Z,63.42
2022-10-28T08:54:37.189Z,65.43
2022-10-28T08:57:08.316Z,66.51
2022-10-28T08:59:38.759Z,66.04
2022-10-28T09:02:19.831Z,65.91
2022-10-28T09:04:49.261Z,67.20
2022-10-28T09:07:18.501Z,72.23
2022-10-28T09:09:45.762Z,68.01
2022-10-28T09:12:25.319Z,65.26
2022-10-28T09:15:06.019Z,65.08
2022-10-28T09:17:42.338Z,66.26
2022-10-28T09:20:18.730Z,64.49
2022-10-28T09:22:55.605Z,66.21
2022-10-28T09:25:27.418Z,66.54
2022-10-28T09:28:10.134Z,67.67
2022-10-28T09:30:48.765Z,67.38
2022-10-28T09:33:37.262Z,66.77
2022-10-28T09:36:11.306Z,66.93
2022-10-28T09:38:39.003Z,66.01
2022-10-28T09:41:15.452Z,61.09
2022-10-28T09:43:48.849Z,64.75
2022-10-28T09:46:18.313Z,64.18
2022-10-28T09:48:48.093Z,65.83
2022-10-28T09:51:33.449Z,68.89
2022-10-28T09:54:02.401Z,100.00
2022-10-28T09:56:30.780Z,100.00
2022-10-28T09:59:01.512Z,100.00
2022-10-28T10:01:32.759Z,100.00
2022-10-28T10:04:00.039Z,100.00
2022-10-28T10:06:32.522Z,100.00
2022-10-28T10:09:00.199Z,100.00
2022-10-28T10:11:33.210Z,100.00
2022-10-28T10:14:04.989Z,100.00
2022-10-28T10:16:41.214Z,100.00
2022-10-28T10:19:09.792Z,100.00
2022-10-28T10:21:45.910Z,100.00
2022-10-28T10:24:32.632Z,100.00
2022-10-28T10:27:02.930Z,100.00
2022-10-28T10:29:32.540Z,63.23
2022-10-28T10:32:22.887Z,58.10
2022-10-28T10:34:56.427Z,53.25
2022-10-28T10:37:24.860Z,50.83
2022-10-28T10:40:04.886Z,49.04
2022-10-28T10:42:31.668Z,48.69
2022-10-28T10:45:02.992Z,48.59
2022-10-28T10:47:30.749Z,48.77
2022-10-28T10:50:22.599Z,48.77
2022-10-28T10:52:55.067Z,47.99
2022-10-28T10:55:34.335Z,48.28
2022-10-28T10:58:02.658Z,49.48
2022-10-28T11:00:35.188Z,48.75
2022-10-28T11:03:03.624Z,48.94
2022-10-28T11:05:35.877Z,47.42
2022-10-28T11:08:07.656Z,48.18
2022-10-28T11:10:35.292Z,46.07
2022-10-28T11:13:05.222Z,45.52
2022-10-28T11:15:33.042Z,45.61
2022-10-28T11:18:02.277Z,46.06
2022-10-28T11:20:43.894Z,44.62
2022-10-28T11:23:44.057Z,45.99
2022-10-28T11:26:13.700Z,45.14
2022-10-28T11:28:55.665Z,45.05
2022-10-28T11:31:46.185Z,45.34
2022-10-28T11:34:34.262Z,44.63
2022-10-28T11:37:11.426Z,44.98
2022-10-28T11:39:49.633Z,44.39
2022-10-28T11:42:24.880Z,44.46
2022-10-28T11:44:56.683Z,44.47
2022-10-28T11:47:57.358Z,44.53
2022-10-28T11:50:31.936Z,44.91
2022-10-28T11:53:28.194Z,44.75
2022-10-28T11:56:09.314Z,46.10
2022-10-28T11:58:46.328Z,44.98
2022-10-28T12:01:27.614Z,45.04
2022-10-28T12:04:07.431Z,44.41
2022-10-28T12:06:57.396Z,43.71
2022-10-28T12:09:35.073Z,43.89
2022-10-28T12:12:13.860Z,44.41
2022-10-28T12:14:52.803Z,43.74
2022-10-28T12:17:28.423Z,43.63
2022-10-28T12:19:59.059Z,44.09
2022-10-28T12:22:30.270Z,44.29
2022-10-28T12:25:01.647Z,43.86
2022-10-28T12:27:32.664Z,43.86
2022-10-28T12:30:03.430Z,44.12
2022-10-28T12:32:35.017Z,44.14
2022-10-28T12:35:07.835Z,44.62
2022-10-28T12:37:42.067Z,45.93
2022-10-28T12:40:16.125Z,45.93
2022-10-28T12:42:50.698Z,46.21
2022-10-28T12:45:33.824Z,45.84
2022-10-28T12:48:07.426Z,52.88
2022-10-28T12:50:40.324Z,55.29
2022-10-28T12:53:24.660Z,57.47
2022-10-28T12:55:58.252Z,56.09
2022-10-28T12:58:33.062Z,57.68
2022-10-28T13:01:03.879Z,55.55
2022-10-28T13:03:31.732Z,57.60
2022-10-28T13:06:15.640Z,57.82
2022-10-28T13:09:02.851Z,58.46
2022-10-28T13:12:00.727Z,61.42
2022-10-28T13:14:45.178Z,63.04
2022-10-28T13:17:28.859Z,64.54
2022-10-28T13:20:02.157Z,63.46
2022-10-28T13:22:48.291Z,62.52
2022-10-28T13:25:33.133Z,54.69
2022-10-28T13:28:00.686Z,52.01
2022-10-28T13:30:32.002Z,49.72
2022-10-28T13:33:06.919Z,47.81
2022-10-28T13:35:33.847Z,47.02
2022-10-28T13:38:02.048Z,46.56
2022-10-28T13:41:05.992Z,47.09
2022-10-28T13:43:57.638Z,47.87
2022-10-28T13:47:04.458Z,48.92
2022-10-28T13:49:34.307Z,47.30
2022-10-28T13:52:04.258Z,48.73
2022-10-28T13:54:33.546Z,48.74
2022-10-28T13:57:13.811Z,49.38
2022-10-28T13:59:51.816Z,50.31
2022-10-28T14:02:35.218Z,50.61
2022-10-28T14:05:07.395Z,51.88
2022-10-28T14:07:35.809Z,58.13
2022-10-28T14:10:21.017Z,64.17
2022-10-28T14:12:51.697Z,66.99
2022-10-28T14:15:25.302Z,68.59
2022-10-28T14:18:00.848Z,68.32
2022-10-28T14:20:40.620Z,69.47
2022-10-28T14:23:49.416Z,70.48
2022-10-28T14:26:16.087Z,71.47
2022-10-28T14:28:53.494Z,71.27
2022-10-28T14:31:35.745Z,71.60
2022-10-28T14:34:38.853Z,69.57
2022-10-28T14:37:28.628Z,69.59
2022-10-28T14:40:14.070Z,71.81
2022-10-28T14:43:24.005Z,71.76
2022-10-28T14:46:05.772Z,74.45
2022-10-28T14:48:52.175Z,73.72
2022-10-28T14:51:21.889Z,74.11
2022-10-28T14:53:53.065Z,74.84
2022-10-28T14:58:58.042Z,76.35
2022-10-28T15:01:27.607Z,78.05
2022-10-28T15:03:58.745Z,79.85
2022-10-28T15:06:28.172Z,72.75
2022-10-28T15:09:02.628Z,72.58
2022-10-28T15:11:30.451Z,65.30
2022-10-28T15:14:11.991Z,64.36
2022-10-28T15:16:46.533Z,62.55
2022-10-28T15:19:16.760Z,63.16
2022-10-28T15:21:43.529Z,61.81
2022-10-28T15:24:14.143Z,62.39
2022-10-28T15:26:40.916Z,61.97
2022-10-28T15:29:09.899Z,62.53
2022-10-28T15:32:04.896Z,62.60
2022-10-28T15:34:31.731Z,62.54
2022-10-28T15:39:32.069Z,63.62
2022-10-28T15:41:59.941Z,63.53
2022-10-28T15:44:31.502Z,62.89
2022-10-28T15:46:59.525Z,63.42
2022-10-28T15:49:34.185Z,63.35
2022-10-28T15:52:20.562Z,63.72
2022-10-28T15:54:56.229Z,63.90
2022-10-28T15:57:25.252Z,64.28
2022-10-28T16:00:21.061Z,64.67
2022-10-28T16:02:56.067Z,65.30
2022-10-28T16:05:46.708Z,64.68
2022-10-28T16:08:20.631Z,64.88
2022-10-28T16:10:51.327Z,65.09
2022-10-28T16:13:25.815Z,66.15
2022-10-28T16:15:57.472Z,66.23
2022-10-28T16:18:25.835Z,66.49
2022-10-28T16:20:53.691Z,66.73
2022-10-28T16:23:23.038Z,67.02
2022-10-28T16:25:51.351Z,67.16
2022-10-28T16:28:24.633Z,66.40
2022-10-28T16:30:53.654Z,66.28
2022-10-28T16:33:27.899Z,66.63
2022-10-28T16:35:54.725Z,66.65
2022-10-28T16:38:21.706Z,66.88
2022-10-28T16:40:54.382Z,66.77
2022-10-28T16:43:23.472Z,66.34
2022-10-28T16:45:51.654Z,66.06
2022-10-28T16:48:20.346Z,66.09
2022-10-28T16:50:53.646Z,66.21
2022-10-28T16:53:21.585Z,65.68
2022-10-28T16:55:48.770Z,64.77
2022-10-28T16:58:21.844Z,65.30
2022-10-28T17:00:51.483Z,65.40
2022-10-28T17:03:18.148Z,65.15
2022-10-28T17:05:44.924Z,65.09
2022-10-28T17:08:11.581Z,65.89
2022-10-28T17:10:40.348Z,65.62
2022-10-28T17:13:08.739Z,65.14
2022-10-28T17:15:36.773Z,65.33
2022-10-28T17:18:03.734Z,64.93
2022-10-28T17:20:30.663Z,65.00
2022-10-28T17:22:58.133Z,63.95
2022-10-28T17:25:24.981Z,64.34
2022-10-28T17:27:52.798Z,64.64
2022-10-28T17:30:20.124Z,64.17
2022-10-28T17:32:52.470Z,64.42
2022-10-28T17:35:20.427Z,64.22
2022-10-28T17:37:47.074Z,64.62
2022-10-28T17:40:14.323Z,64.61
2022-10-28T17:42:41.019Z,64.77
2022-10-28T17:45:09.615Z,64.82
2022-10-28T17:47:36.376Z,65.45
2022-10-28T17:50:05.562Z,65.63
2022-10-28T17:52:35.691Z,65.50
2022-10-28T17:55:05.878Z,66.58
2022-10-28T17:57:32.652Z,66.17
2022-10-28T17:59:59.532Z,66.67
2022-10-28T18:02:26.494Z,66.65
2022-10-28T18:04:53.303Z,66.76
2022-10-28T18:07:21.319Z,67.37
2022-10-28T18:09:48.009Z,67.72
2022-10-28T18:12:14.741Z,68.48
2022-10-28T18:14:41.498Z,68.02
2022-10-28T18:17:08.336Z,68.52
2022-10-28T18:19:35.074Z,68.57
2022-10-28T18:22:02.612Z,69.50
2022-10-28T18:24:30.972Z,69.58
2022-10-28T18:26:57.661Z,69.62
2022-10-28T18:29:24.695Z,70.36
2022-10-28T18:31:51.752Z,70.46
2022-10-28T18:34:19.072Z,70.84
2022-10-28T18:36:46.607Z,71.29
2022-10-28T18:39:13.301Z,72.27
2022-10-28T18:41:42.892Z,71.54
2022-10-28T18:44:12.119Z,72.08
2022-10-28T18:46:38.855Z,72.54
2022-10-28T18:49:07.286Z,72.38
2022-10-28T18:51:34.815Z,72.12
2022-10-28T18:54:02.177Z,72.51
2022-10-28T18:56:30.223Z,72.04
2022-10-28T18:58:59.096Z,71.52
2022-10-28T19:01:27.700Z,71.69
2022-10-28T19:03:56.230Z,70.96
2022-10-28T19:06:23.817Z,70.91
2022-10-28T19:08:51.836Z,71.15
2022-10-28T19:11:19.537Z,69.97
2022-10-28T19:13:46.918Z,70.06
2022-10-28T19:16:15.112Z,69.67
2022-10-28T19:18:41.922Z,70.47
2022-10-28T19:21:12.622Z,70.40
2022-10-28T19:23:40.138Z,70.27
2022-10-28T19:26:07.891Z,70.59
2022-10-28T19:28:39.552Z,70.63
2022-10-28T19:31:08.329Z,70.36
2022-10-28T19:33:38.399Z,71.04
2022-10-28T19:36:07.689Z,71.36
2022-10-28T19:38:36.334Z,71.41
2022-10-28T19:41:08.788Z,71.49
2022-10-28T19:43:35.994Z,71.64
2022-10-28T19:46:13.388Z,71.63
2022-10-28T19:48:43.486Z,71.26
2022-10-28T19:51:14.134Z,71.25
2022-10-28T19:53:41.040Z,71.76
2022-10-28T19:56:07.884Z,71.70
2022-10-28T19:58:35.038Z,72.54
2022-10-28T20:01:03.466Z,72.17
2022-10-28T20:03:34.392Z,72.37
2022-10-28T20:06:06.134Z,72.44
2022-10-28T20:08:37.086Z,72.76
2022-10-28T20:11:06.197Z,71.97
2022-10-28T20:13:33.846Z,72.57
2022-10-28T20:16:02.804Z,73.33
2022-10-28T20:18:30.994Z,73.23
2022-10-28T20:21:04.446Z,73.78
2022-10-28T20:23:32.360Z,74.32
2022-10-28T20:25:59.933Z,74.47
2022-10-28T20:28:26.627Z,74.33
2022-10-28T20:30:58.514Z,75.11
2022-10-28T20:33:25.870Z,75.49
2022-10-28T20:35:53.429Z,75.50
2022-10-28T20:38:21.841Z,75.76
2022-10-28T20:40:49.121Z,75.13
2022-10-28T20:43:16.936Z,75.71
2022-10-28T20:45:43.630Z,76.11
2022-10-28T20:48:10.379Z,75.72
2022-10-28T20:50:37.068Z,75.69
2022-10-28T20:53:03.817Z,75.19
2022-10-28T20:55:31.865Z,75.12
2022-10-28T20:57:58.750Z,74.66
2022-10-28T21:00:25.415Z,74.14
2022-10-28T21:02:55.367Z,74.28
2022-10-28T21:05:22.586Z,74.32
2022-10-28T21:07:49.275Z,73.98
2022-10-28T21:10:17.270Z,73.65
2022-10-28T21:12:45.256Z,73.79
2022-10-28T21:15:12.542Z,74.26
2022-10-28T21:17:39.607Z,74.03
2022-10-28T21:20:07.559Z,74.69
2022-10-28T21:22:35.009Z,75.61
2022-10-28T21:25:02.805Z,75.82
2022-10-28T21:27:29.742Z,76.25
2022-10-28T21:29:57.904Z,76.69
2022-10-28T21:32:25.010Z,76.67
2022-10-28T21:34:51.871Z,77.26
2022-10-28T21:37:18.760Z,76.98
2022-10-28T21:39:47.100Z,77.71
2022-10-28T21:42:14.257Z,78.21
2022-10-28T21:44:42.374Z,78.45
2022-10-28T21:47:10.456Z,78.37
2022-10-28T21:49:37.240Z,79.12
2022-10-28T21:52:04.241Z,79.17
2022-10-28T21:54:32.357Z,79.21
2022-10-28T21:56:58.986Z,79.37
2022-10-28T21:59:25.652Z,79.33
2022-10-28T22:01:52.498Z,78.86
2022-10-28T22:04:20.671Z,79.23
2022-10-28T22:09:18.964Z,80.25
2022-10-28T22:11:45.707Z,80.88
2022-10-28T22:14:12.387Z,81.13
2022-10-28T22:16:39.254Z,81.13
2022-10-28T22:19:07.924Z,81.24
2022-10-28T22:21:40.523Z,81.50
2022-10-28T22:24:07.954Z,81.14
2022-10-28T22:26:34.849Z,81.02
2022-10-28T22:29:01.584Z,81.33
2022-10-28T22:31:33.580Z,81.81
2022-10-28T22:34:00.721Z,83.33
2022-10-28T22:36:31.420Z,83.59
2022-10-28T22:38:59.496Z,83.59
2022-10-28T22:41:28.319Z,84.03
2022-10-28T22:43:56.687Z,85.93
2022-10-28T22:46:26.195Z,85.76
2022-10-28T22:48:53.615Z,85.85
2022-10-28T22:51:20.980Z,85.49
2022-10-28T22:53:47.685Z,85.90
2022-10-28T22:56:18.559Z,87.47
2022-10-28T22:58:45.287Z,89.28
2022-10-28T23:01:13.699Z,90.41
2022-10-28T23:03:42.586Z,92.41
2022-10-28T23:06:11.003Z,93.32
2022-10-28T23:08:38.794Z,92.60
2022-10-28T23:11:05.530Z,94.70
2022-10-28T23:13:33.661Z,96.06
2022-10-28T23:16:03.813Z,96.35
2022-10-28T23:18:30.626Z,95.88
2022-10-28T23:20:57.366Z,96.43
2022-10-28T23:23:24.291Z,97.23
2022-10-28T23:25:54.988Z,97.91
2022-10-28T23:28:21.816Z,100.00
2022-10-28T23:30:50.632Z,100.00
2022-10-28T23:33:17.223Z,100.00
2022-10-28T23:35:44.243Z,100.00
2022-10-28T23:38:11.813Z,100.00
2022-10-28T23:40:39.206Z,100.00
2022-10-28T23:43:06.325Z,100.00
2022-10-28T23:45:33.680Z,100.00
2022-10-28T23:48:02.172Z,100.00
2022-10-28T23:50:28.994Z,100.00
2022-10-28T23:52:59.039Z,100.00
2022-10-28T23:55:26.238Z,100.00
2022-10-28T23:57:56.359Z,100.00
